createdAt,value
2018-02-14T00:00:31.698Z,9.80
2018-02-14T00:02:58.600Z,9.40
2018-02-14T00:05:25.734Z,10.30
2018-02-14T00:07:52.589Z,10.50
2018-02-14T00:10:19.836Z,11.38
2018-02-14T00:12:46.739Z,10.32
2018-02-14T00:15:13.932Z,10.45
2018-02-14T00:17:40.856Z,10.00
2018-02-14T00:20:07.708Z,10.73
2018-02-14T00:22:34.551Z,9.63
2018-02-14T00:25:01.407Z,9.80
2018-02-14T00:27:28.556Z,9.43
2018-02-14T00:29:55.404Z,9.90
2018-02-14T00:32:22.547Z,10.30
2018-02-14T00:34:49.700Z,10.40
2018-02-14T00:37:16.568Z,10.20
2018-02-14T00:39:43.729Z,9.90
2018-02-14T00:42:10.584Z,10.25
2018-02-14T00:44:37.439Z,10.10
2018-02-14T00:47:04.530Z,10.00
2018-02-14T00:49:31.363Z,10.25
2018-02-14T00:51:58.183Z,10.07
2018-02-14T00:54:25.367Z,10.30
2018-02-14T00:56:52.220Z,10.30
2018-02-14T00:59:19.035Z,9.75
2018-02-14T01:01:45.870Z,10.48
2018-02-14T01:04:12.698Z,10.10
2018-02-14T01:06:39.552Z,10.18
2018-02-14T01:09:06.410Z,10.20
2018-02-14T01:11:33.574Z,9.95
2018-02-14T01:14:00.423Z,9.67
2018-02-14T01:16:27.292Z,10.03
2018-02-14T01:18:54.140Z,9.90
2018-02-14T01:21:21.007Z,9.77
2018-02-14T01:23:48.096Z,9.80
2018-02-14T01:26:15.251Z,10.00
2018-02-14T01:28:42.403Z,10.25
2018-02-14T01:31:09.247Z,10.30
2018-02-14T01:33:36.066Z,10.38
2018-02-14T01:36:02.891Z,10.25
2018-02-14T01:38:29.777Z,10.50
2018-02-14T01:40:56.616Z,10.50
2018-02-14T01:43:23.442Z,10.93
2018-02-14T01:45:50.607Z,9.95
2018-02-14T01:48:17.492Z,11.30
2018-02-14T01:50:44.346Z,10.95
2018-02-14T01:53:11.196Z,10.20
2018-02-14T01:55:38.294Z,10.70
2018-02-14T01:58:05.148Z,10.65
2018-02-14T02:00:32.032Z,10.77
2018-02-14T02:02:58.923Z,10.50
2018-02-14T02:05:25.779Z,10.93
2018-02-14T02:07:52.666Z,10.68
2018-02-14T02:10:19.755Z,11.27
2018-02-14T02:12:46.606Z,10.57
2018-02-14T02:15:14.302Z,11.12
2018-02-14T02:17:41.410Z,11.43
2018-02-14T02:20:08.300Z,10.65
2018-02-14T02:22:35.198Z,11.00
2018-02-14T02:25:02.350Z,10.13
2018-02-14T02:27:29.163Z,10.35
2018-02-14T02:29:56.014Z,10.13
2018-02-14T02:32:23.188Z,10.60
2018-02-14T02:34:50.342Z,10.60
2018-02-14T02:37:17.194Z,11.35
2018-02-14T02:40:03.879Z,10.73
2018-02-14T02:42:30.755Z,10.70
2018-02-14T02:44:57.620Z,11.10
2018-02-14T02:47:24.432Z,10.65
2018-02-14T02:49:51.336Z,10.38
2018-02-14T02:52:18.151Z,10.68
2018-02-14T02:54:45.021Z,10.00
2018-02-14T02:57:12.200Z,10.80
2018-02-14T02:59:39.351Z,11.23
2018-02-14T03:02:06.187Z,10.50
2018-02-14T03:04:33.357Z,10.60
2018-02-14T03:07:00.170Z,10.75
2018-02-14T03:09:27.036Z,11.10
2018-02-14T03:11:54.188Z,11.40
2018-02-14T03:14:21.060Z,11.52
2018-02-14T03:16:47.947Z,11.10
2018-02-14T03:19:15.124Z,10.82
2018-02-14T03:21:42.270Z,11.25
2018-02-14T03:24:09.089Z,10.77
2018-02-14T03:26:36.264Z,11.10
2018-02-14T03:29:03.112Z,11.15
2018-02-14T03:31:29.960Z,10.98
2018-02-14T03:33:56.794Z,11.40
2018-02-14T03:36:23.639Z,11.10
2018-02-14T03:38:50.454Z,11.55
2018-02-14T03:41:17.323Z,11.12
2018-02-14T03:43:44.476Z,11.10
2018-02-14T03:46:11.310Z,11.02
2018-02-14T03:48:38.154Z,11.52
2018-02-14T03:51:05.312Z,11.90
2018-02-14T03:53:32.146Z,10.40
2018-02-14T03:55:58.985Z,11.35
2018-02-14T03:58:26.151Z,11.80
2018-02-14T04:00:52.995Z,11.32
2018-02-14T04:03:19.867Z,10.80
2018-02-14T04:05:46.690Z,10.95
2018-02-14T04:08:13.523Z,11.77
2018-02-14T04:10:40.406Z,10.50
2018-02-14T04:13:07.511Z,10.70
2018-02-14T04:15:34.380Z,11.38
2018-02-14T04:18:01.288Z,11.00
2018-02-14T04:20:28.147Z,11.30
2018-02-14T04:22:54.962Z,11.45
2018-02-14T04:25:21.835Z,10.93
2018-02-14T04:27:48.650Z,10.35
2018-02-14T04:30:15.722Z,11.00
2018-02-14T04:32:42.614Z,10.80
2018-02-14T04:35:09.464Z,11.00
2018-02-14T04:37:36.316Z,11.18
2018-02-14T04:40:03.287Z,11.57
2018-02-14T04:42:30.172Z,10.55
2018-02-14T04:44:57.017Z,10.80
2018-02-14T04:47:23.892Z,11.00
2018-02-14T04:49:50.986Z,11.38
2018-02-14T04:52:17.806Z,11.27
2018-02-14T04:54:44.971Z,11.30
2018-02-14T04:57:11.799Z,10.77
2018-02-14T04:59:38.668Z,10.52
2018-02-14T05:02:05.548Z,10.55
2018-02-14T05:04:32.656Z,10.80
2018-02-14T05:06:59.504Z,11.02
2018-02-14T05:09:26.642Z,10.90
2018-02-14T05:11:53.794Z,10.73
2018-02-14T05:14:20.956Z,11.30
2018-02-14T05:16:47.880Z,10.40
2018-02-14T05:19:14.695Z,10.70
2018-02-14T05:21:41.511Z,10.30
2018-02-14T05:24:08.358Z,11.30
2018-02-14T05:26:35.211Z,10.60
2018-02-14T05:29:02.419Z,10.65
2018-02-14T05:31:29.581Z,11.63
2018-02-14T05:33:56.398Z,10.90
2018-02-14T05:36:23.243Z,11.20
2018-02-14T05:38:50.094Z,10.60
2018-02-14T05:41:16.955Z,10.63
2018-02-14T05:43:43.766Z,11.10
2018-02-14T05:46:10.636Z,11.20
2018-02-14T05:48:37.466Z,11.30
2018-02-14T05:51:04.275Z,11.10
2018-02-14T05:53:31.362Z,11.20
2018-02-14T05:55:58.239Z,11.90
2018-02-14T05:58:25.055Z,11.80
2018-02-14T06:00:51.922Z,12.05
2018-02-14T06:03:18.796Z,12.07
2018-02-14T06:05:45.672Z,11.40
2018-02-14T06:08:12.836Z,11.70
2018-02-14T06:10:39.696Z,11.38
2018-02-14T06:13:06.549Z,12.20
2018-02-14T06:15:33.392Z,12.73
2018-02-14T06:18:00.507Z,12.10
2018-02-14T06:20:27.400Z,12.35
2018-02-14T06:22:54.275Z,11.70
2018-02-14T06:25:21.102Z,11.50
2018-02-14T06:27:47.978Z,11.95
2018-02-14T06:30:14.804Z,12.02
2018-02-14T06:32:41.637Z,12.00
2018-02-14T06:35:08.499Z,12.40
2018-02-14T06:37:35.404Z,12.70
2018-02-14T06:40:02.288Z,12.05
2018-02-14T06:42:29.450Z,12.80
2018-02-14T06:44:56.284Z,11.93
2018-02-14T06:47:23.343Z,12.68
2018-02-14T06:49:50.196Z,12.18
2018-02-14T06:52:17.384Z,12.00
2018-02-14T06:54:44.483Z,12.32
2018-02-14T06:57:11.640Z,12.07
2018-02-14T06:59:38.792Z,12.00
2018-02-14T07:02:05.613Z,12.88
2018-02-14T07:04:32.684Z,12.27
2018-02-14T07:06:59.564Z,11.65
2018-02-14T07:09:26.383Z,11.70
2018-02-14T07:11:53.247Z,11.50
2018-02-14T07:14:20.086Z,11.32
2018-02-14T07:16:46.936Z,11.25
2018-02-14T07:19:13.811Z,11.90
2018-02-14T07:21:40.646Z,11.65
2018-02-14T07:24:07.470Z,12.00
2018-02-14T07:26:34.282Z,12.05
2018-02-14T07:29:01.423Z,11.75
2018-02-14T07:31:28.272Z,11.83
2018-02-14T07:33:55.120Z,11.30
2018-02-14T07:36:22.255Z,11.20
2018-02-14T07:38:49.071Z,11.18
2018-02-14T07:41:15.928Z,11.85
2018-02-14T07:43:42.758Z,12.20
2018-02-14T07:46:09.941Z,11.75
2018-02-14T07:48:36.770Z,11.32
2018-02-14T07:51:03.651Z,12.30
2018-02-14T07:53:30.504Z,11.80
2018-02-14T07:55:57.622Z,11.65
2018-02-14T07:58:24.522Z,11.50
2018-02-14T08:00:51.712Z,11.48
2018-02-14T08:03:18.556Z,11.40
2018-02-14T08:05:45.393Z,11.65
2018-02-14T08:08:12.276Z,11.20
2018-02-14T08:10:39.392Z,11.93
2018-02-14T08:13:06.243Z,10.82
2018-02-14T08:15:33.387Z,11.70
2018-02-14T08:18:00.636Z,11.40
2018-02-14T08:20:27.501Z,11.97
2018-02-14T08:22:54.327Z,11.80
2018-02-14T08:25:21.186Z,12.10
2018-02-14T08:27:48.314Z,10.80
2018-02-14T08:30:15.182Z,12.00
2018-02-14T08:32:42.002Z,11.52
2018-02-14T08:35:09.161Z,12.00
2018-02-14T08:37:36.019Z,11.35
2018-02-14T08:40:02.878Z,11.60
2018-02-14T08:42:29.987Z,11.20
2018-02-14T08:44:56.847Z,11.38
2018-02-14T08:47:23.727Z,10.90
2018-02-14T08:49:50.643Z,10.93
2018-02-14T08:52:17.783Z,11.20
2018-02-14T08:54:44.639Z,10.63
2018-02-14T08:57:11.768Z,10.63
2018-02-14T08:59:38.587Z,9.93
2018-02-14T09:02:05.659Z,10.60
2018-02-14T09:04:32.544Z,9.95
2018-02-14T09:06:59.359Z,9.88
2018-02-14T09:09:26.227Z,10.45
2018-02-14T09:11:53.434Z,9.90
2018-02-14T09:14:20.286Z,10.02
2018-02-14T09:16:47.143Z,9.85
2018-02-14T09:19:14.380Z,9.98
2018-02-14T09:21:41.531Z,10.50
2018-02-14T09:24:08.380Z,10.10
2018-02-14T09:26:35.255Z,10.20
2018-02-14T09:29:02.070Z,9.65
2018-02-14T09:31:28.920Z,9.73
2018-02-14T09:33:56.047Z,9.32
2018-02-14T09:36:22.892Z,9.55
2018-02-14T09:38:50.047Z,9.98
2018-02-14T09:41:16.909Z,9.40
2018-02-14T09:43:43.776Z,9.97
2018-02-14T09:46:10.586Z,9.65
2018-02-14T09:48:37.457Z,10.00
2018-02-14T09:51:04.320Z,9.52
2018-02-14T09:53:31.417Z,9.40
2018-02-14T09:55:58.250Z,9.20
2018-02-14T09:58:25.078Z,9.65
2018-02-14T10:00:52.246Z,9.40
2018-02-14T10:03:19.156Z,9.27
2018-02-14T10:05:46.010Z,9.60
2018-02-14T10:08:13.188Z,9.00
2018-02-14T10:10:40.048Z,9.90
2018-02-14T10:13:07.186Z,10.70
2018-02-14T10:15:34.036Z,10.43
2018-02-14T10:18:01.198Z,10.32
2018-02-14T10:20:28.329Z,10.50
2018-02-14T10:22:55.176Z,9.93
2018-02-14T10:25:22.324Z,10.40
2018-02-14T10:27:49.472Z,10.63
2018-02-14T10:30:16.325Z,10.55
2018-02-14T10:32:43.166Z,10.45
2018-02-14T10:35:09.989Z,9.93
2018-02-14T10:37:36.851Z,10.57
2018-02-14T10:40:03.992Z,11.48
2018-02-14T10:42:30.829Z,10.32
2018-02-14T10:44:57.991Z,11.10
2018-02-14T10:47:25.130Z,10.55
2018-02-14T10:49:52.290Z,11.07
2018-02-14T10:52:19.119Z,11.15
2018-02-14T10:54:45.978Z,11.07
2018-02-14T10:57:12.840Z,10.90
2018-02-14T10:59:39.975Z,10.73
2018-02-14T11:02:07.063Z,11.60
2018-02-14T11:04:33.891Z,11.43
2018-02-14T11:07:01.113Z,11.35
2018-02-14T11:09:27.998Z,11.10
2018-02-14T11:11:55.098Z,10.90
2018-02-14T11:14:22.159Z,11.40
2018-02-14T11:16:49.018Z,11.55
2018-02-14T11:19:16.160Z,11.10
2018-02-14T11:21:42.980Z,11.70
2018-02-14T11:24:09.856Z,11.50
2018-02-14T11:26:36.984Z,10.70
2018-02-14T11:29:03.807Z,11.05
2018-02-14T11:31:30.651Z,11.20
2018-02-14T11:33:57.760Z,11.27
2018-02-14T11:36:24.869Z,10.63
2018-02-14T11:38:51.732Z,11.30
2018-02-14T11:41:18.563Z,11.10
2018-02-14T11:43:45.699Z,11.73
2018-02-14T11:46:12.856Z,10.95
2018-02-14T11:48:40.007Z,11.00
2018-02-14T11:51:07.158Z,11.27
2018-02-14T11:53:33.999Z,11.00
2018-02-14T11:56:00.843Z,10.40
2018-02-14T11:58:27.715Z,11.30
2018-02-14T12:00:54.562Z,11.00
2018-02-14T12:03:21.428Z,10.80
2018-02-14T12:05:48.515Z,10.35
2018-02-14T12:08:15.666Z,10.40
2018-02-14T12:10:42.495Z,10.00
2018-02-14T12:13:09.312Z,9.93
2018-02-14T12:15:36.174Z,9.38
2018-02-14T12:18:03.017Z,9.85
2018-02-14T12:20:30.199Z,10.70
2018-02-14T12:22:57.076Z,10.53
2018-02-14T12:25:24.190Z,11.25
2018-02-14T12:27:51.075Z,9.50
2018-02-14T12:30:17.907Z,9.52
2018-02-14T12:32:44.726Z,8.60
2018-02-14T12:35:11.559Z,9.10
2018-02-14T12:37:38.391Z,9.85
2018-02-14T12:40:05.212Z,9.40
2018-02-14T12:42:32.022Z,9.30
2018-02-14T12:44:59.139Z,9.60
2018-02-14T12:47:26.299Z,9.40
2018-02-14T12:49:53.112Z,10.35
2018-02-14T12:52:20.294Z,9.90
2018-02-14T12:54:47.431Z,9.82
2018-02-14T12:57:14.296Z,10.23
2018-02-14T12:59:41.422Z,9.55
2018-02-14T13:02:08.267Z,10.60
2018-02-14T13:04:35.116Z,9.20
2018-02-14T13:07:01.996Z,10.20
2018-02-14T13:09:28.848Z,10.02
2018-02-14T13:11:55.714Z,10.27
2018-02-14T13:14:22.824Z,9.98
2018-02-14T13:16:49.947Z,9.73
2018-02-14T13:19:16.788Z,9.75
2018-02-14T13:21:43.635Z,10.10
2018-02-14T13:24:10.462Z,10.55
2018-02-14T13:26:37.321Z,10.73
2018-02-14T13:29:04.154Z,11.02
2018-02-14T13:31:30.983Z,10.73
2018-02-14T13:33:57.844Z,10.38
2018-02-14T13:36:24.769Z,10.30
2018-02-14T13:38:51.834Z,10.55
2018-02-14T13:41:18.650Z,9.10
2018-02-14T13:43:45.507Z,10.13
2018-02-14T13:46:12.339Z,9.80
2018-02-14T13:48:39.520Z,10.10
2018-02-14T13:51:06.667Z,10.05
2018-02-14T13:53:33.498Z,10.13
2018-02-14T13:56:00.326Z,10.88
2018-02-14T13:58:27.183Z,10.63
2018-02-14T14:00:53.997Z,10.45
2018-02-14T14:03:21.087Z,10.55
2018-02-14T14:05:47.972Z,10.63
2018-02-14T14:08:14.828Z,10.30
2018-02-14T14:10:41.675Z,10.00
2018-02-14T14:13:08.769Z,12.87
2018-02-14T14:15:35.586Z,14.57
2018-02-14T14:18:02.414Z,14.82
2018-02-14T14:20:29.500Z,12.60
2018-02-14T14:22:56.365Z,11.80
2018-02-14T14:25:23.495Z,11.75
2018-02-14T14:27:50.373Z,11.55
2018-02-14T14:30:17.194Z,11.10
2018-02-14T14:32:44.330Z,11.10
2018-02-14T14:35:11.212Z,12.37
2018-02-14T14:37:38.049Z,12.18
2018-02-14T14:40:04.888Z,10.75
2018-02-14T14:42:31.747Z,10.20
2018-02-14T14:44:58.648Z,10.30
2018-02-14T14:47:25.482Z,10.02
2018-02-14T14:49:52.356Z,10.07
2018-02-14T14:52:19.216Z,9.70
2018-02-14T14:54:46.344Z,10.88
2018-02-14T14:57:13.478Z,10.05
2018-02-14T14:59:40.329Z,10.18
2018-02-14T15:02:07.149Z,10.02
2018-02-14T15:04:33.999Z,10.75
2018-02-14T15:07:01.119Z,9.60
2018-02-14T15:09:28.316Z,10.50
2018-02-14T15:11:55.195Z,10.37
2018-02-14T15:14:22.063Z,9.93
2018-02-14T15:16:49.256Z,9.88
2018-02-14T15:19:16.096Z,9.97
2018-02-14T15:21:42.949Z,9.90
2018-02-14T15:24:09.799Z,9.93
2018-02-14T15:26:36.927Z,10.27
2018-02-14T15:29:03.779Z,9.70
2018-02-14T15:31:30.590Z,9.70
2018-02-14T15:33:57.428Z,9.93
2018-02-14T15:36:24.288Z,11.30
2018-02-14T15:38:51.494Z,9.50
2018-02-14T15:41:18.892Z,9.90
2018-02-14T15:43:45.959Z,10.10
2018-02-14T15:46:12.869Z,10.02
2018-02-14T15:48:39.953Z,9.90
2018-02-14T15:51:06.817Z,10.07
2018-02-14T15:53:33.664Z,10.00
2018-02-14T15:56:00.531Z,10.10
2018-02-14T15:58:27.388Z,10.38
2018-02-14T16:00:54.588Z,10.40
2018-02-14T16:03:21.423Z,9.50
2018-02-14T16:05:48.243Z,9.20
2018-02-14T16:08:15.088Z,9.85
2018-02-14T16:10:42.265Z,10.10
2018-02-14T16:13:09.413Z,10.80
2018-02-14T16:15:36.227Z,12.40
2018-02-14T16:18:03.152Z,12.70
2018-02-14T16:20:30.242Z,9.53
2018-02-14T16:22:57.096Z,9.85
2018-02-14T16:25:24.234Z,8.70
2018-02-14T16:27:51.084Z,9.02
2018-02-14T16:30:17.932Z,8.35
2018-02-14T16:32:44.796Z,9.10
2018-02-14T16:35:11.916Z,9.20
2018-02-14T16:37:39.067Z,9.60
2018-02-14T16:40:05.909Z,9.57
2018-02-14T16:42:32.756Z,9.02
2018-02-14T16:44:59.611Z,9.63
2018-02-14T16:47:26.682Z,9.65
2018-02-14T16:49:53.543Z,9.80
2018-02-14T16:52:20.365Z,10.05
2018-02-14T16:54:47.439Z,10.07
2018-02-14T16:57:14.530Z,10.00
2018-02-14T16:59:41.376Z,9.77
2018-02-14T17:02:08.529Z,9.25
2018-02-14T17:04:35.372Z,9.70
2018-02-14T17:07:02.186Z,9.30
2018-02-14T17:09:29.365Z,9.65
2018-02-14T17:11:56.210Z,9.60
2018-02-14T17:14:23.067Z,9.27
2018-02-14T17:16:50.199Z,9.40
2018-02-14T17:19:17.064Z,9.05
2018-02-14T17:21:43.890Z,10.00
2018-02-14T17:24:10.751Z,9.45
2018-02-14T17:26:37.874Z,9.05
2018-02-14T17:29:04.717Z,9.93
2018-02-14T17:31:31.600Z,10.00
2018-02-14T17:33:58.419Z,10.20
2018-02-14T17:36:25.230Z,9.88
2018-02-14T17:38:52.116Z,10.45
2018-02-14T17:41:18.978Z,10.60
2018-02-14T17:43:46.100Z,9.50
2018-02-14T17:46:12.931Z,10.25
2018-02-14T17:48:39.789Z,9.82
2018-02-14T17:51:06.598Z,9.73
2018-02-14T17:53:33.471Z,10.10
2018-02-14T17:56:00.290Z,9.50
2018-02-14T17:58:27.460Z,10.20
2018-02-14T18:00:54.334Z,10.25
2018-02-14T18:03:21.183Z,10.27
2018-02-14T18:05:48.295Z,10.18
2018-02-14T18:08:15.167Z,10.20
2018-02-14T18:10:42.000Z,10.48
2018-02-14T18:13:08.852Z,9.98
2018-02-14T18:15:35.707Z,10.38
2018-02-14T18:18:02.568Z,11.00
2018-02-14T18:20:29.411Z,10.80
2018-02-14T18:22:56.307Z,10.63
2018-02-14T18:25:23.443Z,10.20
2018-02-14T18:27:50.299Z,10.60
2018-02-14T18:30:17.164Z,9.88
2018-02-14T18:32:44.279Z,10.60
2018-02-14T18:35:11.132Z,10.55
2018-02-14T18:37:38.279Z,11.50
2018-02-14T18:40:05.179Z,10.80
2018-02-14T18:42:32.028Z,10.93
2018-02-14T18:44:58.871Z,10.63
2018-02-14T18:47:25.728Z,11.30
2018-02-14T18:49:52.904Z,11.07
2018-02-14T18:52:19.750Z,10.80
2018-02-14T18:54:46.896Z,10.60
2018-02-14T18:57:14.042Z,10.75
2018-02-14T18:59:40.924Z,11.02
2018-02-14T19:02:07.777Z,11.18
2018-02-14T19:04:34.635Z,10.77
2018-02-14T19:07:01.510Z,10.60
2018-02-14T19:09:28.368Z,11.55
2018-02-14T19:11:55.193Z,10.70
2018-02-14T19:14:22.023Z,10.88
2018-02-14T19:16:48.835Z,10.47
2018-02-14T19:19:15.687Z,11.20
2018-02-14T19:21:42.522Z,10.90
2018-02-14T19:24:09.381Z,11.03
2018-02-14T19:26:36.222Z,11.13
2018-02-14T19:29:03.348Z,11.40
2018-02-14T19:31:30.463Z,10.30
2018-02-14T19:33:57.364Z,10.90
2018-02-14T19:36:24.242Z,10.60
2018-02-14T19:38:51.103Z,10.35
2018-02-14T19:41:18.252Z,10.68
2018-02-14T19:43:45.120Z,11.15
2018-02-14T19:46:11.939Z,10.52
2018-02-14T19:48:38.755Z,11.43
2018-02-14T19:51:05.627Z,11.60
2018-02-14T19:53:32.784Z,10.50
2018-02-14T19:55:59.608Z,11.63
2018-02-14T19:58:26.453Z,10.90
2018-02-14T20:00:53.606Z,11.73
2018-02-14T20:03:20.426Z,12.85
2018-02-14T20:05:47.264Z,12.20
2018-02-14T20:08:14.120Z,11.82
2018-02-14T20:10:41.179Z,12.43
2018-02-14T20:13:08.330Z,12.35
2018-02-14T20:15:35.198Z,12.68
2018-02-14T20:18:02.019Z,13.10
2018-02-14T20:20:28.870Z,12.77
2018-02-14T20:22:55.710Z,12.48
2018-02-14T20:25:22.542Z,13.13
2018-02-14T20:27:49.415Z,12.60
2018-02-14T20:30:16.285Z,13.23
2018-02-14T20:32:43.388Z,12.93
2018-02-14T20:35:10.555Z,13.02
2018-02-14T20:37:37.375Z,13.10
2018-02-14T20:40:04.199Z,13.25
2018-02-14T20:42:31.179Z,12.55
2018-02-14T20:44:58.324Z,12.15
2018-02-14T20:47:25.172Z,12.70
2018-02-14T20:49:52.318Z,12.70
2018-02-14T20:52:19.168Z,13.15
2018-02-14T20:54:45.999Z,12.48
2018-02-14T20:57:12.838Z,13.00
2018-02-14T20:59:39.991Z,12.70
2018-02-14T21:02:06.824Z,13.60
2018-02-14T21:04:33.988Z,12.45
2018-02-14T21:07:00.830Z,12.40
2018-02-14T21:09:27.696Z,12.20
2018-02-14T21:11:54.831Z,12.63
2018-02-14T21:14:21.666Z,12.52
2018-02-14T21:16:48.815Z,12.80
2018-02-14T21:19:15.968Z,13.00
2018-02-14T21:21:43.121Z,12.63
2018-02-14T21:24:10.270Z,12.30
2018-02-14T21:26:37.424Z,12.40
2018-02-14T21:29:04.270Z,13.00
2018-02-14T21:31:31.135Z,12.65
2018-02-14T21:33:58.255Z,12.25
2018-02-14T21:36:25.412Z,12.52
2018-02-14T21:38:52.263Z,12.60
2018-02-14T21:41:19.106Z,12.23
2018-02-14T21:43:46.241Z,13.43
2018-02-14T21:46:13.396Z,12.70
2018-02-14T21:48:40.548Z,12.60
2018-02-14T21:51:07.396Z,11.73
2018-02-14T21:53:34.535Z,13.30
2018-02-14T21:56:01.375Z,12.13
2018-02-14T21:58:28.199Z,13.55
2018-02-14T22:00:55.027Z,12.20
2018-02-14T22:03:21.923Z,12.63
2018-02-14T22:05:48.714Z,12.67
2018-02-14T22:08:15.564Z,12.80
2018-02-14T22:10:42.419Z,12.60
2018-02-14T22:13:09.272Z,12.70
2018-02-14T22:15:36.121Z,12.47
2018-02-14T22:18:03.280Z,12.60
2018-02-14T22:20:30.430Z,12.88
2018-02-14T22:22:57.575Z,12.13
2018-02-14T22:25:24.411Z,12.30
2018-02-14T22:27:51.263Z,12.65
2018-02-14T22:30:18.419Z,12.35
2018-02-14T22:32:45.254Z,12.70
2018-02-14T22:35:12.075Z,12.70
2018-02-14T22:37:38.932Z,13.13
2018-02-14T22:40:05.820Z,13.00
2018-02-14T22:42:32.679Z,13.68
2018-02-14T22:44:59.741Z,13.48
2018-02-14T22:47:26.620Z,14.13
2018-02-14T22:49:53.468Z,14.90
2018-02-14T22:52:20.614Z,13.93
2018-02-14T22:54:47.779Z,14.00
2018-02-14T22:57:14.663Z,14.73
2018-02-14T22:59:41.864Z,15.10
2018-02-14T23:02:09.012Z,14.60
2018-02-14T23:04:36.164Z,14.38
2018-02-14T23:07:03.015Z,15.23
2018-02-14T23:09:29.869Z,15.40
2018-02-14T23:11:56.688Z,16.52
2018-02-14T23:14:23.544Z,16.30
2018-02-14T23:16:50.452Z,15.45
2018-02-14T23:19:17.528Z,17.08
2018-02-14T23:21:44.386Z,17.08
2018-02-14T23:24:11.518Z,17.85
2018-02-14T23:26:38.680Z,18.40
2018-02-14T23:29:05.528Z,18.17
2018-02-14T23:31:32.668Z,18.00
2018-02-14T23:33:59.768Z,18.33
2018-02-14T23:36:26.968Z,19.12
2018-02-14T23:38:53.844Z,19.23
2018-02-14T23:41:20.723Z,20.58
2018-02-14T23:43:47.555Z,21.92
2018-02-14T23:46:14.407Z,21.87
2018-02-14T23:48:41.508Z,20.60
2018-02-14T23:51:08.648Z,21.35
2018-02-14T23:53:35.519Z,21.27
2018-02-14T23:56:02.392Z,20.80
2018-02-14T23:58:29.580Z,20.63
